sensor_id;sensor_type;location;lat;lon;timestamp;temperature;humidity
22738;DHT22;11536;50.860;4.286;2024-01-15T00:02:06;3.00;99.90
22738;DHT22;11536;50.860;4.286;2024-01-15T00:04:37;3.00;99.90
22738;DHT22;11536;50.860;4.286;2024-01-15T00:07:03;3.00;99.90
22738;DHT22;11536;50.860;4.286;2024-01-15T00:09:28;3.00;99.90
22738;DHT22;11536;50.860;4.286;2024-01-15T00:11:54;3.00;99.90
22738;DHT22;11536;50.860;4.286;2024-01-15T00:14:20;3.00;99.90
22738;DHT22;11536;50.860;4.286;2024-01-15T00:16:46;3.10;99.90
22738;DHT22;11536;50.860;4.286;2024-01-15T00:19:12;3.10;99.90
22738;DHT22;11536;50.860;4.286;2024-01-15T00:21:37;3.10;99.90
22738;DHT22;11536;50.860;4.286;2024-01-15T00:24:03;3.10;99.90
22738;DHT22;11536;50.860;4.286;2024-01-15T00:26:29;3.10;99.90
22738;DHT22;11536;50.860;4.286;2024-01-15T00:28:55;3.10;99.90
22738;DHT22;11536;50.860;4.286;2024-01-15T00:31:20;3.10;99.90
22738;DHT22;11536;50.860;4.286;2024-01-15T00:33:46;3.10;99.90
22738;DHT22;11536;50.860;4.286;2024-01-15T00:36:11;3.10;99.90
22738;DHT22;11536;50.860;4.286;2024-01-15T00:38:37;3.10;99.90
22738;DHT22;11536;50.860;4.286;2024-01-15T00:41:03;3.10;99.90
22738;DHT22;11536;50.860;4.286;2024-01-15T00:43:28;3.10;99.90
22738;DHT22;11536;50.860;4.286;2024-01-15T00:45:54;3.20;99.90
22738;DHT22;11536;50.860;4.286;2024-01-15T00:48:19;3.10;99.90
22738;DHT22;11536;50.860;4.286;2024-01-15T00:50:45;3.20;99.90
22738;DHT22;11536;50.860;4.286;2024-01-15T00:53:11;3.20;99.90
22738;DHT22;11536;50.860;4.286;2024-01-15T00:55:37;3.20;99.90
22738;DHT22;11536;50.860;4.286;2024-01-15T00:58:03;3.20;99.90
22738;DHT22;11536;50.860;4.286;2024-01-15T01:00:29;3.20;99.90
22738;DHT22;11536;50.860;4.286;2024-01-15T01:02:54;3.20;99.90
22738;DHT22;11536;50.860;4.286;2024-01-15T01:05:20;3.20;99.90
22738;DHT22;11536;50.860;4.286;2024-01-15T01:07:46;3.30;99.90
22738;DHT22;11536;50.860;4.286;2024-01-15T01:10:11;3.30;99.90
22738;DHT22;11536;50.860;4.286;2024-01-15T01:12:37;3.30;99.90
22738;DHT22;11536;50.860;4.286;2024-01-15T01:15:03;3.30;99.90
22738;DHT22;11536;50.860;4.286;2024-01-15T01:17:28;3.30;99.90
22738;DHT22;11536;50.860;4.286;2024-01-15T01:19:56;3.30;99.90
22738;DHT22;11536;50.860;4.286;2024-01-15T01:22:21;3.30;99.90
22738;DHT22;11536;50.860;4.286;2024-01-15T01:24:47;3.30;99.90
22738;DHT22;11536;50.860;4.286;2024-01-15T01:27:12;3.30;99.90
22738;DHT22;11536;50.860;4.286;2024-01-15T01:29:38;3.40;99.90
22738;DHT22;11536;50.860;4.286;2024-01-15T01:32:04;3.40;99.90
22738;DHT22;11536;50.860;4.286;2024-01-15T01:34:29;3.40;99.90
22738;DHT22;11536;50.860;4.286;2024-01-15T01:36:55;3.40;99.90
22738;DHT22;11536;50.860;4.286;2024-01-15T01:39:21;3.40;99.90
22738;DHT22;11536;50.860;4.286;2024-01-15T01:41:46;3.40;99.90
22738;DHT22;11536;50.860;4.286;2024-01-15T01:44:12;3.40;99.90
22738;DHT22;11536;50.860;4.286;2024-01-15T01:46:38;3.40;99.90
22738;DHT22;11536;50.860;4.286;2024-01-15T01:49:07;3.40;99.90
22738;DHT22;11536;50.860;4.286;2024-01-15T01:51:34;3.40;99.90
22738;DHT22;11536;50.860;4.286;2024-01-15T01:54:00;3.40;99.90
22738;DHT22;11536;50.860;4.286;2024-01-15T01:56:26;3.40;99.90
22738;DHT22;11536;50.860;4.286;2024-01-15T01:58:52;3.40;99.90
22738;DHT22;11536;50.860;4.286;2024-01-15T02:01:18;3.40;99.90
22738;DHT22;11536;50.860;4.286;2024-01-15T02:03:45;3.40;99.90
22738;DHT22;11536;50.860;4.286;2024-01-15T02:06:10;3.40;99.90
22738;DHT22;11536;50.860;4.286;2024-01-15T02:08:36;3.40;99.90
22738;DHT22;11536;50.860;4.286;2024-01-15T02:11:02;3.40;99.90
22738;DHT22;11536;50.860;4.286;2024-01-15T02:13:28;3.40;99.90
22738;DHT22;11536;50.860;4.286;2024-01-15T02:15:54;3.40;99.90
22738;DHT22;11536;50.860;4.286;2024-01-15T02:18:19;3.50;99.90
22738;DHT22;11536;50.860;4.286;2024-01-15T02:20:45;3.50;99.90
22738;DHT22;11536;50.860;4.286;2024-01-15T02:25:41;3.50;99.90
22738;DHT22;11536;50.860;4.286;2024-01-15T02:28:12;3.50;99.90
22738;DHT22;11536;50.860;4.286;2024-01-15T02:30:39;3.50;99.90
22738;DHT22;11536;50.860;4.286;2024-01-15T02:33:06;3.50;99.90
22738;DHT22;11536;50.860;4.286;2024-01-15T02:35:32;3.50;99.90
22738;DHT22;11536;50.860;4.286;2024-01-15T02:37:58;3.50;99.90
22738;DHT22;11536;50.860;4.286;2024-01-15T02:40:24;3.50;99.90
22738;DHT22;11536;50.860;4.286;2024-01-15T02:42:49;3.50;99.90
22738;DHT22;11536;50.860;4.286;2024-01-15T02:45:15;3.40;99.90
22738;DHT22;11536;50.860;4.286;2024-01-15T02:47:41;3.40;99.90
22738;DHT22;11536;50.860;4.286;2024-01-15T02:50:07;3.50;99.90
22738;DHT22;11536;50.860;4.286;2024-01-15T02:52:32;3.50;99.90
22738;DHT22;11536;50.860;4.286;2024-01-15T02:54:58;3.60;99.90
22738;DHT22;11536;50.860;4.286;2024-01-15T02:57:23;3.50;99.90
22738;DHT22;11536;50.860;4.286;2024-01-15T02:59:49;3.50;99.90
22738;DHT22;11536;50.860;4.286;2024-01-15T03:02:14;3.50;99.90
22738;DHT22;11536;50.860;4.286;2024-01-15T03:04:44;3.50;99.90
22738;DHT22;11536;50.860;4.286;2024-01-15T03:07:10;3.60;99.90
22738;DHT22;11536;50.860;4.286;2024-01-15T03:09:35;3.60;99.90
22738;DHT22;11536;50.860;4.286;2024-01-15T03:12:01;3.60;99.90
22738;DHT22;11536;50.860;4.286;2024-01-15T03:14:27;3.60;99.90
22738;DHT22;11536;50.860;4.286;2024-01-15T03:16:53;3.50;99.90
22738;DHT22;11536;50.860;4.286;2024-01-15T03:19:19;3.60;99.90
22738;DHT22;11536;50.860;4.286;2024-01-15T03:21:44;3.60;99.90
22738;DHT22;11536;50.860;4.286;2024-01-15T03:24:10;3.50;99.90
22738;DHT22;11536;50.860;4.286;2024-01-15T03:26:36;3.50;99.90
22738;DHT22;11536;50.860;4.286;2024-01-15T03:29:01;3.50;99.90
22738;DHT22;11536;50.860;4.286;2024-01-15T03:31:27;3.60;99.90
22738;DHT22;11536;50.860;4.286;2024-01-15T03:33:53;3.60;99.90
22738;DHT22;11536;50.860;4.286;2024-01-15T03:36:18;3.50;99.90
22738;DHT22;11536;50.860;4.286;2024-01-15T03:38:44;3.50;99.90
22738;DHT22;11536;50.860;4.286;2024-01-15T03:41:10;3.50;99.90
22738;DHT22;11536;50.860;4.286;2024-01-15T03:43:35;3.40;99.90
22738;DHT22;11536;50.860;4.286;2024-01-15T03:46:01;3.40;99.90
22738;DHT22;11536;50.860;4.286;2024-01-15T03:48:27;3.40;99.90
22738;DHT22;11536;50.860;4.286;2024-01-15T03:50:53;3.30;99.90
22738;DHT22;11536;50.860;4.286;2024-01-15T03:53:18;3.40;99.90
22738;DHT22;11536;50.860;4.286;2024-01-15T03:55:44;3.40;99.90
22738;DHT22;11536;50.860;4.286;2024-01-15T03:58:09;3.40;99.90
22738;DHT22;11536;50.860;4.286;2024-01-15T04:00:35;3.40;99.90
22738;DHT22;11536;50.860;4.286;2024-01-15T04:03:01;3.40;99.90
22738;DHT22;11536;50.860;4.286;2024-01-15T04:05:26;3.40;99.90
22738;DHT22;11536;50.860;4.286;2024-01-15T04:07:52;3.40;99.90
22738;DHT22;11536;50.860;4.286;2024-01-15T04:10:18;3.30;99.90
22738;DHT22;11536;50.860;4.286;2024-01-15T04:12:43;3.40;99.90
22738;DHT22;11536;50.860;4.286;2024-01-15T04:15:12;3.40;99.90
22738;DHT22;11536;50.860;4.286;2024-01-15T04:17:37;3.30;99.90
22738;DHT22;11536;50.860;4.286;2024-01-15T04:20:03;3.40;99.90
22738;DHT22;11536;50.860;4.286;2024-01-15T04:22:29;3.40;99.90
22738;DHT22;11536;50.860;4.286;2024-01-15T04:24:55;3.40;99.90
22738;DHT22;11536;50.860;4.286;2024-01-15T04:27:20;3.40;99.90
22738;DHT22;11536;50.860;4.286;2024-01-15T04:29:46;3.40;99.90
22738;DHT22;11536;50.860;4.286;2024-01-15T04:32:12;3.40;99.90
22738;DHT22;11536;50.860;4.286;2024-01-15T04:34:37;3.40;99.90
22738;DHT22;11536;50.860;4.286;2024-01-15T04:37:03;3.40;99.90
22738;DHT22;11536;50.860;4.286;2024-01-15T04:39:29;3.40;99.90
22738;DHT22;11536;50.860;4.286;2024-01-15T04:41:55;3.40;99.90
22738;DHT22;11536;50.860;4.286;2024-01-15T04:44:20;3.40;99.90
22738;DHT22;11536;50.860;4.286;2024-01-15T04:46:46;3.40;99.90
22738;DHT22;11536;50.860;4.286;2024-01-15T04:49:11;3.40;99.90
22738;DHT22;11536;50.860;4.286;2024-01-15T04:51:37;3.40;99.90
22738;DHT22;11536;50.860;4.286;2024-01-15T04:54:03;3.40;99.90
22738;DHT22;11536;50.860;4.286;2024-01-15T04:56:29;3.40;99.90
22738;DHT22;11536;50.860;4.286;2024-01-15T04:58:54;3.40;99.90
22738;DHT22;11536;50.860;4.286;2024-01-15T05:01:20;3.40;99.90
22738;DHT22;11536;50.860;4.286;2024-01-15T05:03:45;3.30;99.90
22738;DHT22;11536;50.860;4.286;2024-01-15T05:06:11;3.30;99.90
22738;DHT22;11536;50.860;4.286;2024-01-15T05:08:37;3.30;99.90
22738;DHT22;11536;50.860;4.286;2024-01-15T05:11:02;3.30;99.90
22738;DHT22;11536;50.860;4.286;2024-01-15T05:13:28;3.30;99.90
22738;DHT22;11536;50.860;4.286;2024-01-15T05:15:53;3.20;99.90
22738;DHT22;11536;50.860;4.286;2024-01-15T05:18:19;3.20;99.90
22738;DHT22;11536;50.860;4.286;2024-01-15T05:20:45;3.20;99.90
22738;DHT22;11536;50.860;4.286;2024-01-15T05:23:10;3.20;99.90
22738;DHT22;11536;50.860;4.286;2024-01-15T05:25:36;3.10;99.90
22738;DHT22;11536;50.860;4.286;2024-01-15T05:28:02;3.10;99.90
22738;DHT22;11536;50.860;4.286;2024-01-15T05:30:27;3.10;99.90
22738;DHT22;11536;50.860;4.286;2024-01-15T05:32:53;3.00;99.90
22738;DHT22;11536;50.860;4.286;2024-01-15T05:35:19;3.00;99.90
22738;DHT22;11536;50.860;4.286;2024-01-15T05:37:45;3.00;99.90
22738;DHT22;11536;50.860;4.286;2024-01-15T05:40:12;3.00;99.90
22738;DHT22;11536;50.860;4.286;2024-01-15T05:42:41;3.00;99.90
22738;DHT22;11536;50.860;4.286;2024-01-15T05:45:07;3.00;99.90
22738;DHT22;11536;50.860;4.286;2024-01-15T05:47:33;3.10;99.90
22738;DHT22;11536;50.860;4.286;2024-01-15T05:50:00;3.10;99.90
22738;DHT22;11536;50.860;4.286;2024-01-15T05:52:25;3.10;99.90
22738;DHT22;11536;50.860;4.286;2024-01-15T05:54:51;3.10;99.90
22738;DHT22;11536;50.860;4.286;2024-01-15T05:57:17;3.10;99.90
22738;DHT22;11536;50.860;4.286;2024-01-15T05:59:44;3.10;99.90
22738;DHT22;11536;50.860;4.286;2024-01-15T06:02:09;3.10;99.90
22738;DHT22;11536;50.860;4.286;2024-01-15T06:04:36;3.10;99.90
22738;DHT22;11536;50.860;4.286;2024-01-15T06:07:01;3.10;99.90
22738;DHT22;11536;50.860;4.286;2024-01-15T06:09:27;3.10;99.90
22738;DHT22;11536;50.860;4.286;2024-01-15T06:11:53;3.10;99.90
22738;DHT22;11536;50.860;4.286;2024-01-15T06:14:19;3.10;99.90
22738;DHT22;11536;50.860;4.286;2024-01-15T06:16:45;3.00;99.90
22738;DHT22;11536;50.860;4.286;2024-01-15T06:19:10;3.00;99.90
22738;DHT22;11536;50.860;4.286;2024-01-15T06:21:36;3.00;99.90
22738;DHT22;11536;50.860;4.286;2024-01-15T06:24:01;3.00;99.90
22738;DHT22;11536;50.860;4.286;2024-01-15T06:26:27;3.00;99.90
22738;DHT22;11536;50.860;4.286;2024-01-15T06:28:53;3.00;99.90
22738;DHT22;11536;50.860;4.286;2024-01-15T06:31:18;3.00;99.90
22738;DHT22;11536;50.860;4.286;2024-01-15T06:33:44;3.00;99.90
22738;DHT22;11536;50.860;4.286;2024-01-15T06:36:12;3.00;99.90
22738;DHT22;11536;50.860;4.286;2024-01-15T06:38:38;3.00;99.90
22738;DHT22;11536;50.860;4.286;2024-01-15T06:41:04;3.00;99.90
22738;DHT22;11536;50.860;4.286;2024-01-15T06:43:29;2.90;99.90
22738;DHT22;11536;50.860;4.286;2024-01-15T06:45:55;2.90;99.90
22738;DHT22;11536;50.860;4.286;2024-01-15T06:48:21;2.90;99.90
22738;DHT22;11536;50.860;4.286;2024-01-15T06:50:46;2.90;99.90
22738;DHT22;11536;50.860;4.286;2024-01-15T06:53:12;2.90;99.90
22738;DHT22;11536;50.860;4.286;2024-01-15T06:55:38;2.90;99.90
22738;DHT22;11536;50.860;4.286;2024-01-15T06:58:04;2.90;99.90
22738;DHT22;11536;50.860;4.286;2024-01-15T07:00:30;2.80;99.90
22738;DHT22;11536;50.860;4.286;2024-01-15T07:02:56;2.80;99.90
22738;DHT22;11536;50.860;4.286;2024-01-15T07:05:23;2.80;99.90
22738;DHT22;11536;50.860;4.286;2024-01-15T07:07:49;2.80;99.90
22738;DHT22;11536;50.860;4.286;2024-01-15T07:10:15;2.80;99.90
22738;DHT22;11536;50.860;4.286;2024-01-15T07:12:42;2.80;99.90
22738;DHT22;11536;50.860;4.286;2024-01-15T07:15:08;2.80;99.90
22738;DHT22;11536;50.860;4.286;2024-01-15T07:17:35;2.70;99.90
22738;DHT22;11536;50.860;4.286;2024-01-15T07:20:01;2.70;99.90
22738;DHT22;11536;50.860;4.286;2024-01-15T07:22:27;2.70;99.90
22738;DHT22;11536;50.860;4.286;2024-01-15T07:24:53;2.60;99.90
22738;DHT22;11536;50.860;4.286;2024-01-15T07:27:19;2.70;99.90
22738;DHT22;11536;50.860;4.286;2024-01-15T07:29:45;2.70;99.90
22738;DHT22;11536;50.860;4.286;2024-01-15T07:32:11;2.60;99.90
22738;DHT22;11536;50.860;4.286;2024-01-15T07:34:37;2.70;99.90
22738;DHT22;11536;50.860;4.286;2024-01-15T07:37:02;2.70;99.90
22738;DHT22;11536;50.860;4.286;2024-01-15T07:39:28;2.70;99.90
22738;DHT22;11536;50.860;4.286;2024-01-15T07:41:54;2.70;99.90
22738;DHT22;11536;50.860;4.286;2024-01-15T07:44:20;2.70;99.90
22738;DHT22;11536;50.860;4.286;2024-01-15T07:46:46;2.60;99.90
22738;DHT22;11536;50.860;4.286;2024-01-15T07:49:12;2.70;99.90
22738;DHT22;11536;50.860;4.286;2024-01-15T07:51:38;2.60;99.90
22738;DHT22;11536;50.860;4.286;2024-01-15T07:54:06;2.70;99.90
22738;DHT22;11536;50.860;4.286;2024-01-15T07:56:33;2.70;99.90
22738;DHT22;11536;50.860;4.286;2024-01-15T07:59:04;2.60;99.90
22738;DHT22;11536;50.860;4.286;2024-01-15T08:01:30;2.70;99.90
22738;DHT22;11536;50.860;4.286;2024-01-15T08:03:55;2.70;99.90
22738;DHT22;11536;50.860;4.286;2024-01-15T08:06:21;2.60;99.90
22738;DHT22;11536;50.860;4.286;2024-01-15T08:08:46;2.70;99.90
22738;DHT22;11536;50.860;4.286;2024-01-15T08:11:12;2.60;99.90
22738;DHT22;11536;50.860;4.286;2024-01-15T08:13:37;2.70;99.90
22738;DHT22;11536;50.860;4.286;2024-01-15T08:16:03;2.60;99.90
22738;DHT22;11536;50.860;4.286;2024-01-15T08:18:29;2.70;99.90
22738;DHT22;11536;50.860;4.286;2024-01-15T08:20:54;2.70;99.90
22738;DHT22;11536;50.860;4.286;2024-01-15T08:23:20;2.70;99.90
22738;DHT22;11536;50.860;4.286;2024-01-15T08:25:46;2.70;99.90
22738;DHT22;11536;50.860;4.286;2024-01-15T08:28:12;2.70;99.90
22738;DHT22;11536;50.860;4.286;2024-01-15T08:30:38;2.70;99.90
22738;DHT22;11536;50.860;4.286;2024-01-15T08:33:03;2.70;99.90
22738;DHT22;11536;50.860;4.286;2024-01-15T08:35:29;2.80;99.90
22738;DHT22;11536;50.860;4.286;2024-01-15T08:37:55;2.70;99.90
22738;DHT22;11536;50.860;4.286;2024-01-15T08:40:20;2.70;99.90
22738;DHT22;11536;50.860;4.286;2024-01-15T08:42:46;2.80;99.90
22738;DHT22;11536;50.860;4.286;2024-01-15T08:45:12;2.70;99.90
22738;DHT22;11536;50.860;4.286;2024-01-15T08:47:38;2.70;99.90
22738;DHT22;11536;50.860;4.286;2024-01-15T08:50:04;2.70;99.90
22738;DHT22;11536;50.860;4.286;2024-01-15T08:52:33;2.70;99.90
22738;DHT22;11536;50.860;4.286;2024-01-15T08:54:59;2.70;99.90
22738;DHT22;11536;50.860;4.286;2024-01-15T08:57:26;2.70;99.90
22738;DHT22;11536;50.860;4.286;2024-01-15T08:59:51;2.70;99.90
22738;DHT22;11536;50.860;4.286;2024-01-15T09:02:17;2.80;99.90
22738;DHT22;11536;50.860;4.286;2024-01-15T09:04:43;2.80;99.90
22738;DHT22;11536;50.860;4.286;2024-01-15T09:07:08;2.80;99.90
22738;DHT22;11536;50.860;4.286;2024-01-15T09:09:34;2.80;99.90
22738;DHT22;11536;50.860;4.286;2024-01-15T09:12:01;2.80;99.90
22738;DHT22;11536;50.860;4.286;2024-01-15T09:14:26;2.80;99.90
22738;DHT22;11536;50.860;4.286;2024-01-15T09:16:54;2.80;99.90
22738;DHT22;11536;50.860;4.286;2024-01-15T09:19:20;2.80;99.90
22738;DHT22;11536;50.860;4.286;2024-01-15T09:21:45;2.90;99.90
22738;DHT22;11536;50.860;4.286;2024-01-15T09:24:11;3.00;99.90
22738;DHT22;11536;50.860;4.286;2024-01-15T09:26:36;3.00;99.90
22738;DHT22;11536;50.860;4.286;2024-01-15T09:29:02;3.00;99.90
22738;DHT22;11536;50.860;4.286;2024-01-15T09:31:28;3.00;99.90
22738;DHT22;11536;50.860;4.286;2024-01-15T09:33:54;3.10;99.90
22738;DHT22;11536;50.860;4.286;2024-01-15T09:36:28;3.10;99.90
22738;DHT22;11536;50.860;4.286;2024-01-15T09:38:54;3.10;99.90
22738;DHT22;11536;50.860;4.286;2024-01-15T09:41:19;3.20;99.90
22738;DHT22;11536;50.860;4.286;2024-01-15T09:43:46;3.20;99.90
22738;DHT22;11536;50.860;4.286;2024-01-15T09:46:11;3.20;99.90
22738;DHT22;11536;50.860;4.286;2024-01-15T09:48:37;3.20;99.90
22738;DHT22;11536;50.860;4.286;2024-01-15T09:51:04;3.20;99.90
22738;DHT22;11536;50.860;4.286;2024-01-15T09:53:31;3.30;99.90
22738;DHT22;11536;50.860;4.286;2024-01-15T09:55:58;3.30;99.90
22738;DHT22;11536;50.860;4.286;2024-01-15T09:58:23;3.30;99.90
22738;DHT22;11536;50.860;4.286;2024-01-15T10:00:50;3.30;99.90
22738;DHT22;11536;50.860;4.286;2024-01-15T10:03:17;3.40;99.90
22738;DHT22;11536;50.860;4.286;2024-01-15T10:05:44;3.40;99.90
22738;DHT22;11536;50.860;4.286;2024-01-15T10:08:09;3.50;99.90
22738;DHT22;11536;50.860;4.286;2024-01-15T10:10:37;3.40;99.90
22738;DHT22;11536;50.860;4.286;2024-01-15T10:13:04;3.50;99.90
22738;DHT22;11536;50.860;4.286;2024-01-15T10:15:37;3.50;99.90
22738;DHT22;11536;50.860;4.286;2024-01-15T10:18:03;3.50;99.90
22738;DHT22;11536;50.860;4.286;2024-01-15T10:20:32;3.60;99.90
22738;DHT22;11536;50.860;4.286;2024-01-15T10:22:58;3.60;99.90
22738;DHT22;11536;50.860;4.286;2024-01-15T10:25:24;3.60;99.90
22738;DHT22;11536;50.860;4.286;2024-01-15T10:28:01;3.70;99.90
22738;DHT22;11536;50.860;4.286;2024-01-15T10:30:27;3.70;99.90
22738;DHT22;11536;50.860;4.286;2024-01-15T10:33:00;3.70;99.90
22738;DHT22;11536;50.860;4.286;2024-01-15T10:35:30;3.70;99.90
22738;DHT22;11536;50.860;4.286;2024-01-15T10:37:56;3.80;99.90
22738;DHT22;11536;50.860;4.286;2024-01-15T10:40:21;3.80;99.90
22738;DHT22;11536;50.860;4.286;2024-01-15T10:42:47;3.80;99.90
22738;DHT22;11536;50.860;4.286;2024-01-15T10:45:14;3.90;99.90
22738;DHT22;11536;50.860;4.286;2024-01-15T10:47:40;3.90;99.90
22738;DHT22;11536;50.860;4.286;2024-01-15T10:50:07;3.90;99.90
22738;DHT22;11536;50.860;4.286;2024-01-15T10:52:35;4.00;99.90
22738;DHT22;11536;50.860;4.286;2024-01-15T10:55:01;4.00;99.90
22738;DHT22;11536;50.860;4.286;2024-01-15T10:57:28;4.10;99.90
22738;DHT22;11536;50.860;4.286;2024-01-15T10:59:55;4.20;99.90
22738;DHT22;11536;50.860;4.286;2024-01-15T11:02:20;4.20;99.90
22738;DHT22;11536;50.860;4.286;2024-01-15T11:04:46;4.30;99.90
22738;DHT22;11536;50.860;4.286;2024-01-15T11:07:13;4.30;99.90
22738;DHT22;11536;50.860;4.286;2024-01-15T11:09:39;4.30;99.90
22738;DHT22;11536;50.860;4.286;2024-01-15T11:12:11;4.40;99.90
22738;DHT22;11536;50.860;4.286;2024-01-15T11:14:47;4.40;99.90
22738;DHT22;11536;50.860;4.286;2024-01-15T11:17:14;4.50;99.90
22738;DHT22;11536;50.860;4.286;2024-01-15T11:19:47;4.50;99.90
22738;DHT22;11536;50.860;4.286;2024-01-15T11:25:14;4.50;99.90
22738;DHT22;11536;50.860;4.286;2024-01-15T11:27:47;4.50;99.90
22738;DHT22;11536;50.860;4.286;2024-01-15T11:30:16;4.50;99.90
22738;DHT22;11536;50.860;4.286;2024-01-15T11:32:42;4.50;99.90
22738;DHT22;11536;50.860;4.286;2024-01-15T11:35:08;4.50;99.90
22738;DHT22;11536;50.860;4.286;2024-01-15T11:43:03;4.50;99.90
22738;DHT22;11536;50.860;4.286;2024-01-15T11:45:30;4.40;99.90
22738;DHT22;11536;50.860;4.286;2024-01-15T11:48:15;4.40;99.90
22738;DHT22;11536;50.860;4.286;2024-01-15T11:50:46;4.40;99.90
22738;DHT22;11536;50.860;4.286;2024-01-15T11:55:45;4.60;99.90
22738;DHT22;11536;50.860;4.286;2024-01-15T11:58:11;4.70;99.90
22738;DHT22;11536;50.860;4.286;2024-01-15T12:00:51;4.80;99.90
22738;DHT22;11536;50.860;4.286;2024-01-15T12:03:20;4.80;99.90
22738;DHT22;11536;50.860;4.286;2024-01-15T12:05:46;4.90;99.90
22738;DHT22;11536;50.860;4.286;2024-01-15T12:08:11;4.90;99.90
22738;DHT22;11536;50.860;4.286;2024-01-15T12:10:38;4.90;99.90
22738;DHT22;11536;50.860;4.286;2024-01-15T12:13:14;4.90;99.90
22738;DHT22;11536;50.860;4.286;2024-01-15T12:15:41;4.90;99.90
22738;DHT22;11536;50.860;4.286;2024-01-15T12:18:08;4.90;99.90
22738;DHT22;11536;50.860;4.286;2024-01-15T12:20:35;4.90;99.90
22738;DHT22;11536;50.860;4.286;2024-01-15T12:23:01;5.00;99.90
22738;DHT22;11536;50.860;4.286;2024-01-15T12:25:29;5.30;99.90
22738;DHT22;11536;50.860;4.286;2024-01-15T12:27:56;5.40;99.90
22738;DHT22;11536;50.860;4.286;2024-01-15T12:30:22;5.50;99.90
22738;DHT22;11536;50.860;4.286;2024-01-15T12:32:47;5.40;99.90
22738;DHT22;11536;50.860;4.286;2024-01-15T12:35:14;5.30;99.90
22738;DHT22;11536;50.860;4.286;2024-01-15T12:37:41;5.30;99.90
22738;DHT22;11536;50.860;4.286;2024-01-15T12:40:09;5.40;99.90
22738;DHT22;11536;50.860;4.286;2024-01-15T12:42:36;5.40;99.90
22738;DHT22;11536;50.860;4.286;2024-01-15T12:45:02;5.30;99.90
22738;DHT22;11536;50.860;4.286;2024-01-15T12:47:30;5.30;99.90
22738;DHT22;11536;50.860;4.286;2024-01-15T12:49:56;5.20;99.90
22738;DHT22;11536;50.860;4.286;2024-01-15T12:52:22;5.20;99.90
22738;DHT22;11536;50.860;4.286;2024-01-15T12:54:51;5.10;99.90
22738;DHT22;11536;50.860;4.286;2024-01-15T12:57:17;5.10;99.90
22738;DHT22;11536;50.860;4.286;2024-01-15T12:59:46;5.10;99.90
22738;DHT22;11536;50.860;4.286;2024-01-15T13:02:12;5.00;99.90
22738;DHT22;11536;50.860;4.286;2024-01-15T13:04:39;5.10;99.90
22738;DHT22;11536;50.860;4.286;2024-01-15T13:07:08;5.10;99.90
22738;DHT22;11536;50.860;4.286;2024-01-15T13:09:34;5.10;99.90
22738;DHT22;11536;50.860;4.286;2024-01-15T13:12:03;5.00;99.90
22738;DHT22;11536;50.860;4.286;2024-01-15T13:14:29;4.90;99.90
22738;DHT22;11536;50.860;4.286;2024-01-15T13:16:55;4.90;99.90
22738;DHT22;11536;50.860;4.286;2024-01-15T13:19:21;4.80;99.90
22738;DHT22;11536;50.860;4.286;2024-01-15T13:21:47;4.80;99.90
22738;DHT22;11536;50.860;4.286;2024-01-15T13:24:13;4.80;99.90
22738;DHT22;11536;50.860;4.286;2024-01-15T13:26:39;4.80;99.90
22738;DHT22;11536;50.860;4.286;2024-01-15T13:29:05;4.90;99.90
22738;DHT22;11536;50.860;4.286;2024-01-15T13:31:34;4.90;99.90
22738;DHT22;11536;50.860;4.286;2024-01-15T13:34:00;4.80;99.90
22738;DHT22;11536;50.860;4.286;2024-01-15T13:36:26;4.90;99.90
22738;DHT22;11536;50.860;4.286;2024-01-15T13:38:53;4.90;99.90
22738;DHT22;11536;50.860;4.286;2024-01-15T13:41:19;4.90;99.90
22738;DHT22;11536;50.860;4.286;2024-01-15T13:43:49;4.90;99.90
22738;DHT22;11536;50.860;4.286;2024-01-15T13:46:15;5.00;99.90
22738;DHT22;11536;50.860;4.286;2024-01-15T13:48:40;5.00;99.90
22738;DHT22;11536;50.860;4.286;2024-01-15T13:51:06;5.00;99.90
22738;DHT22;11536;50.860;4.286;2024-01-15T13:53:32;5.00;99.90
22738;DHT22;11536;50.860;4.286;2024-01-15T13:55:57;5.00;99.90
22738;DHT22;11536;50.860;4.286;2024-01-15T13:58:23;4.90;99.90
22738;DHT22;11536;50.860;4.286;2024-01-15T14:00:51;4.90;99.90
22738;DHT22;11536;50.860;4.286;2024-01-15T14:03:16;4.80;99.90
22738;DHT22;11536;50.860;4.286;2024-01-15T14:05:42;4.70;99.90
22738;DHT22;11536;50.860;4.286;2024-01-15T14:08:08;4.70;99.90
22738;DHT22;11536;50.860;4.286;2024-01-15T14:10:34;4.60;99.90
22738;DHT22;11536;50.860;4.286;2024-01-15T14:12:59;4.60;99.90
22738;DHT22;11536;50.860;4.286;2024-01-15T14:15:25;4.60;99.90
22738;DHT22;11536;50.860;4.286;2024-01-15T14:17:50;4.60;99.90
22738;DHT22;11536;50.860;4.286;2024-01-15T14:20:17;4.60;99.90
22738;DHT22;11536;50.860;4.286;2024-01-15T14:22:43;4.60;99.90
22738;DHT22;11536;50.860;4.286;2024-01-15T14:25:09;4.60;99.90
22738;DHT22;11536;50.860;4.286;2024-01-15T14:27:35;4.60;99.90
22738;DHT22;11536;50.860;4.286;2024-01-15T14:30:02;4.60;99.90
22738;DHT22;11536;50.860;4.286;2024-01-15T14:32:28;4.60;99.90
22738;DHT22;11536;50.860;4.286;2024-01-15T14:34:53;4.60;99.90
22738;DHT22;11536;50.860;4.286;2024-01-15T14:37:19;4.40;99.90
22738;DHT22;11536;50.860;4.286;2024-01-15T14:39:46;4.40;99.90
22738;DHT22;11536;50.860;4.286;2024-01-15T14:42:11;4.20;99.90
22738;DHT22;11536;50.860;4.286;2024-01-15T14:44:37;4.10;99.90
22738;DHT22;11536;50.860;4.286;2024-01-15T14:47:06;4.10;99.90
22738;DHT22;11536;50.860;4.286;2024-01-15T14:49:32;4.10;99.90
22738;DHT22;11536;50.860;4.286;2024-01-15T14:51:57;4.00;99.90
22738;DHT22;11536;50.860;4.286;2024-01-15T14:54:23;4.00;99.90
22738;DHT22;11536;50.860;4.286;2024-01-15T14:56:49;4.00;99.90
22738;DHT22;11536;50.860;4.286;2024-01-15T14:59:14;4.00;99.90
22738;DHT22;11536;50.860;4.286;2024-01-15T15:01:40;4.00;99.90
22738;DHT22;11536;50.860;4.286;2024-01-15T15:04:07;3.90;99.90
22738;DHT22;11536;50.860;4.286;2024-01-15T15:06:33;3.80;99.90
22738;DHT22;11536;50.860;4.286;2024-01-15T15:08:59;3.80;99.90
22738;DHT22;11536;50.860;4.286;2024-01-15T15:11:27;3.80;99.90
22738;DHT22;11536;50.860;4.286;2024-01-15T15:13:53;3.80;99.90
22738;DHT22;11536;50.860;4.286;2024-01-15T15:16:19;3.70;99.90
22738;DHT22;11536;50.860;4.286;2024-01-15T15:18:44;3.70;99.90
22738;DHT22;11536;50.860;4.286;2024-01-15T15:21:11;3.70;99.90
22738;DHT22;11536;50.860;4.286;2024-01-15T15:23:37;3.60;99.90
22738;DHT22;11536;50.860;4.286;2024-01-15T15:26:04;3.60;99.90
22738;DHT22;11536;50.860;4.286;2024-01-15T15:28:30;3.60;99.90
22738;DHT22;11536;50.860;4.286;2024-01-15T15:30:55;3.50;99.90
22738;DHT22;11536;50.860;4.286;2024-01-15T15:33:22;3.60;99.90
22738;DHT22;11536;50.860;4.286;2024-01-15T15:35:48;3.50;99.90
22738;DHT22;11536;50.860;4.286;2024-01-15T15:38:16;3.50;99.90
22738;DHT22;11536;50.860;4.286;2024-01-15T15:40:42;3.50;99.90
22738;DHT22;11536;50.860;4.286;2024-01-15T15:43:08;3.50;99.90
22738;DHT22;11536;50.860;4.286;2024-01-15T15:45:37;3.40;99.90
22738;DHT22;11536;50.860;4.286;2024-01-15T15:48:03;3.40;99.90
22738;DHT22;11536;50.860;4.286;2024-01-15T15:50:28;3.40;99.90
22738;DHT22;11536;50.860;4.286;2024-01-15T15:52:55;3.30;99.90